TimeCDT,TemperatureF,Dew PointF,Humidity,Sea Level PressureIn,VisibilityMPH,Wind Direction,Wind SpeedMPH,Gust SpeedMPH,PrecipitationIn,Events,Conditions,WindDirDegrees,DateUTC
12:56 AM,48.0,28.9,48,29.89,5.0,South,18.4,-,N/A,,Haze,180,2014-04-06 05:56:00
1:56 AM,46.9,30.9,54,29.88,3.0,South,19.6,-,N/A,,Haze,190,2014-04-06 06:56:00
2:56 AM,44.1,30.9,60,29.89,3.0,South,12.7,-,N/A,,Haze,190,2014-04-06 07:56:00
3:56 AM,44.1,30.9,60,29.89,3.0,SSW,12.7,-,N/A,,Haze,200,2014-04-06 08:56:00
4:56 AM,44.1,32.0,63,29.88,4.0,SSW,16.1,-,N/A,,Haze,200,2014-04-06 09:56:00
5:56 AM,46.0,34.0,63,29.88,9.0,SW,13.8,-,N/A,,Clear,220,2014-04-06 10:56:00
6:56 AM,44.1,34.0,68,29.90,9.0,South,10.4,-,N/A,,Clear,190,2014-04-06 11:56:00
7:56 AM,46.0,36.0,68,29.92,10.0,SW,6.9,-,N/A,,Mostly Cloudy,220,2014-04-06 12:56:00
8:56 AM,46.9,37.0,68,29.93,10.0,SW,5.8,-,N/A,,Overcast,230,2014-04-06 13:56:00
9:56 AM,51.1,39.0,63,29.91,10.0,SW,11.5,-,N/A,,Overcast,230,2014-04-06 14:56:00
10:56 AM,57.0,39.0,51,29.90,10.0,SW,16.1,-,N/A,,Clear,220,2014-04-06 15:56:00
11:56 AM,59.0,37.9,46,29.88,10.0,SSW,13.8,25.3,N/A,,Clear,210,2014-04-06 16:56:00
12:56 PM,61.0,39.0,44,29.85,10.0,SW,12.7,19.6,N/A,,Partly Cloudy,220,2014-04-06 17:56:00
1:56 PM,63.0,39.9,43,29.82,10.0,SSW,9.2,19.6,N/A,,Scattered Clouds,210,2014-04-06 18:56:00
2:56 PM,63.0,39.9,43,29.80,10.0,South,11.5,18.4,N/A,,Mostly Cloudy,180,2014-04-06 19:56:00
3:56 PM,63.0,39.0,41,29.79,10.0,South,6.9,-,N/A,,Overcast,170,2014-04-06 20:56:00
4:56 PM,64.0,37.9,38,29.78,10.0,SSE,12.7,-,N/A,,Overcast,160,2014-04-06 21:56:00
5:56 PM,63.0,37.0,38,29.77,10.0,SSE,15.0,-,N/A,,Mostly Cloudy,150,2014-04-06 22:56:00
6:56 PM,61.0,36.0,39,29.76,10.0,SSE,15.0,-,N/A,,Clear,160,2014-04-06 23:56:00
7:56 PM,57.0,37.0,47,29.78,10.0,SSE,10.4,-,N/A,,Mostly Cloudy,160,2014-04-07 00:56:00
8:56 PM,53.1,43.0,69,29.87,8.0,West,5.8,-,0.01,Rain,Light Rain,270,2014-04-07 01:56:00
9:56 PM,48.9,44.1,83,29.87,10.0,West,17.3,-,0.02,Rain,Light Rain,260,2014-04-07 02:56:00
10:03 PM,48.0,44.1,86,29.85,10.0,WSW,20.7,-,0.00,Rain,Light Rain,250,2014-04-07 03:03:00
10:37 PM,48.9,43.0,80,29.82,10.0,South,24.2,-,0.02,Rain,Light Rain,180,2014-04-07 03:37:00
10:56 PM,51.1,41.0,68,29.80,10.0,South,25.3,29.9,0.02,,Overcast,170,2014-04-07 03:56:00